createdAt,value
2018-12-29T00:00:02.355Z,-0.4
2018-12-29T00:01:02.235Z,-0.4
2018-12-29T00:02:02.148Z,-0.4
2018-12-29T00:03:03.054Z,-0.5
2018-12-29T00:04:02.998Z,-0.5
2018-12-29T00:05:02.965Z,-0.5
2018-12-29T00:06:02.894Z,-0.6
2018-12-29T00:07:06.499Z,-0.6
2018-12-29T00:08:06.394Z,-0.6
2018-12-29T00:09:06.518Z,-0.6
2018-12-29T00:10:06.414Z,-0.6
2018-12-29T00:11:06.302Z,-0.6
2018-12-29T00:12:06.256Z,-0.6
2018-12-29T00:13:07.210Z,-0.6
2018-12-29T00:14:07.136Z,-0.6
2018-12-29T00:15:07.040Z,-0.6
2018-12-29T00:16:07.947Z,-0.6
2018-12-29T00:17:09.304Z,-0.6
2018-12-29T00:18:09.290Z,-0.7
2018-12-29T00:19:09.206Z,-0.7
2018-12-29T00:20:09.118Z,-0.7
2018-12-29T00:21:09.272Z,-0.7
2018-12-29T00:22:09.164Z,-0.7
2018-12-29T00:23:09.049Z,-0.7
2018-12-29T00:24:09.167Z,-0.7
2018-12-29T00:25:09.082Z,-0.7
2018-12-29T00:26:08.994Z,-0.7
2018-12-29T00:27:09.334Z,-0.7
2018-12-29T00:28:09.210Z,-0.7
2018-12-29T00:29:10.185Z,-0.8
2018-12-29T00:30:10.099Z,-0.7
2018-12-29T00:31:09.997Z,-0.8
2018-12-29T00:32:09.894Z,-0.8
2018-12-29T00:33:09.828Z,-0.8
2018-12-29T00:34:09.713Z,-0.7
2018-12-29T00:35:09.633Z,-0.7
2018-12-29T00:36:09.584Z,-0.7
2018-12-29T00:37:10.000Z,-0.7
2018-12-29T00:38:13.005Z,-0.7
2018-12-29T00:39:13.907Z,-0.8
2018-12-29T00:40:19.286Z,-0.7
2018-12-29T00:41:19.619Z,-0.7
2018-12-29T00:42:19.777Z,-0.8
2018-12-29T00:43:19.671Z,-0.8
2018-12-29T00:44:19.803Z,-0.9
2018-12-29T00:45:22.273Z,-0.8
2018-12-29T00:46:22.191Z,-0.8
2018-12-29T00:47:22.731Z,-0.8
2018-12-29T00:48:22.643Z,-0.8
2018-12-29T00:49:22.551Z,-0.8
2018-12-29T00:50:22.487Z,-0.8
2018-12-29T00:51:22.411Z,-0.8
2018-12-29T00:52:24.865Z,-0.8
2018-12-29T00:53:24.771Z,-0.8
2018-12-29T00:54:26.403Z,-0.9
2018-12-29T00:55:26.537Z,-0.9
2018-12-29T00:56:27.477Z,-0.9
2018-12-29T00:57:27.861Z,-0.9
2018-12-29T00:58:27.759Z,-0.9
2018-12-29T00:59:27.657Z,-1
2018-12-29T01:00:27.566Z,-1
2018-12-29T01:01:27.514Z,-1
2018-12-29T01:02:27.444Z,-1
2018-12-29T01:03:27.561Z,-0.9
2018-12-29T01:04:30.447Z,-0.9
2018-12-29T01:05:30.378Z,-1
2018-12-29T01:06:33.143Z,-1
2018-12-29T01:07:34.515Z,-1
2018-12-29T01:08:34.427Z,-1
2018-12-29T01:09:34.319Z,-1
2018-12-29T01:10:34.226Z,-1
2018-12-29T01:11:34.136Z,-1
2018-12-29T01:12:34.256Z,-0.9
2018-12-29T01:13:34.141Z,-0.9
2018-12-29T01:14:34.029Z,-0.9
2018-12-29T01:15:36.749Z,-0.9
2018-12-29T01:16:36.625Z,-0.9
2018-12-29T01:17:37.009Z,-0.9
2018-12-29T01:18:37.137Z,-0.9
2018-12-29T01:19:38.057Z,-0.9
2018-12-29T01:20:37.957Z,-0.9
2018-12-29T01:21:37.947Z,-0.9
2018-12-29T01:22:37.861Z,-0.9
2018-12-29T01:23:43.581Z,-0.9
2018-12-29T01:24:46.406Z,-0.9
2018-12-29T01:25:46.327Z,-0.9
2018-12-29T01:26:46.273Z,-0.9
2018-12-29T01:27:49.418Z,-0.9
2018-12-29T01:28:49.312Z,-0.9
2018-12-29T01:29:49.260Z,-0.9
2018-12-29T01:30:49.203Z,-0.9
2018-12-29T01:31:49.132Z,-0.9
2018-12-29T01:32:49.048Z,-0.9
2018-12-29T01:33:48.941Z,-0.9
2018-12-29T01:34:48.855Z,-0.9
2018-12-29T01:35:49.017Z,-0.9
2018-12-29T01:36:48.923Z,-0.8
2018-12-29T01:37:49.247Z,-0.8
2018-12-29T01:38:50.152Z,-0.9
2018-12-29T01:39:52.778Z,-0.9
2018-12-29T01:40:55.644Z,-0.8
2018-12-29T01:41:55.580Z,-0.9
2018-12-29T01:42:55.515Z,-0.8
2018-12-29T01:43:56.452Z,-0.8
2018-12-29T01:44:56.366Z,-0.8
2018-12-29T01:45:56.524Z,-0.8
2018-12-29T01:46:56.678Z,-0.8
2018-12-29T01:47:56.966Z,-0.9
2018-12-29T01:48:56.868Z,-0.9
2018-12-29T01:49:56.786Z,-0.9
2018-12-29T01:50:56.713Z,-0.9
2018-12-29T01:51:56.614Z,-0.8
2018-12-29T01:52:57.016Z,-0.8
2018-12-29T01:53:56.923Z,-0.8
2018-12-29T01:54:56.820Z,-0.9
2018-12-29T01:55:56.725Z,-0.9
2018-12-29T01:56:56.664Z,-0.9
2018-12-29T01:57:57.000Z,-0.9
2018-12-29T01:58:57.140Z,-0.9
2018-12-29T01:59:57.084Z,-0.9
2018-12-29T02:00:57.000Z,-0.9
2018-12-29T02:01:56.966Z,-0.9
2018-12-29T02:02:56.868Z,-0.9
2018-12-29T02:03:56.762Z,-0.9
2018-12-29T02:04:56.746Z,-0.9
2018-12-29T02:05:56.705Z,-0.9
2018-12-29T02:06:59.481Z,-0.9
2018-12-29T02:07:59.789Z,-0.9
2018-12-29T02:08:59.682Z,-0.9
2018-12-29T02:09:59.574Z,-0.9
2018-12-29T02:10:59.496Z,-0.9
2018-12-29T02:11:59.388Z,-0.9
2018-12-29T02:13:01.908Z,-0.9
2018-12-29T02:14:01.849Z,-1
2018-12-29T02:15:01.769Z,-1
2018-12-29T02:16:01.688Z,-0.9
2018-12-29T02:17:01.586Z,-1
2018-12-29T02:18:02.983Z,-1
2018-12-29T02:19:02.918Z,-1
2018-12-29T02:20:02.913Z,-1
2018-12-29T02:21:02.808Z,-1
2018-12-29T02:22:02.717Z,-1.1
2018-12-29T02:23:02.627Z,-1.1
2018-12-29T02:24:05.338Z,-1.1
2018-12-29T02:25:05.280Z,-1.1
2018-12-29T02:26:05.195Z,-1.1
2018-12-29T02:27:06.169Z,-1.1
2018-12-29T02:28:06.827Z,-1.1
2018-12-29T02:29:06.976Z,-1.1
2018-12-29T02:30:06.879Z,-1.1
2018-12-29T02:31:06.877Z,-1.1
2018-12-29T02:32:06.771Z,-1.1
2018-12-29T02:33:06.749Z,-1.1
2018-12-29T02:34:06.687Z,-1.1
2018-12-29T02:35:06.605Z,-1.1
2018-12-29T02:36:09.299Z,-1.1
2018-12-29T02:37:10.244Z,-1.1
2018-12-29T02:38:10.601Z,-1.1
2018-12-29T02:39:10.534Z,-1.1
2018-12-29T02:40:10.464Z,-1.1
2018-12-29T02:41:10.366Z,-1.1
2018-12-29T02:42:10.255Z,-1.1
2018-12-29T02:43:10.163Z,-1.1
2018-12-29T02:44:10.334Z,-1.2
2018-12-29T02:45:10.230Z,-1.2
2018-12-29T02:46:10.161Z,-1.2
2018-12-29T02:47:10.100Z,-1.2
2018-12-29T02:48:12.552Z,-1.2
2018-12-29T02:49:12.706Z,-1.3
2018-12-29T02:50:12.663Z,-1.2
2018-12-29T02:51:12.568Z,-1.2
2018-12-29T02:52:12.568Z,-1.2
2018-12-29T02:53:12.504Z,-1.2
2018-12-29T02:54:12.654Z,-1.2
2018-12-29T02:55:12.579Z,-1.2
2018-12-29T02:56:12.503Z,-1.3
2018-12-29T02:57:12.646Z,-1.2
2018-12-29T02:58:13.230Z,-1.3
2018-12-29T02:59:13.173Z,-1.3
2018-12-29T03:00:13.102Z,-1.2
2018-12-29T03:01:13.009Z,-1.3
2018-12-29T03:02:12.945Z,-1.3
2018-12-29T03:03:12.842Z,-1.3
2018-12-29T03:04:15.569Z,-1.4
2018-12-29T03:05:18.285Z,-1.4
2018-12-29T03:06:20.742Z,-1.4
2018-12-29T03:07:20.644Z,-1.4
2018-12-29T03:08:21.009Z,-1.4
2018-12-29T03:09:20.912Z,-1.4
2018-12-29T03:10:20.963Z,-1.4
2018-12-29T03:11:20.876Z,-1.4
2018-12-29T03:12:20.831Z,-1.4
2018-12-29T03:13:20.803Z,-1.3
2018-12-29T03:14:20.737Z,-1.5
2018-12-29T03:15:20.697Z,-1.4
2018-12-29T03:16:20.626Z,-1.4
2018-12-29T03:17:26.308Z,-1.4
2018-12-29T03:18:26.688Z,-1.4
2018-12-29T03:19:26.601Z,-1.4
2018-12-29T03:20:26.783Z,-1.4
2018-12-29T03:21:26.703Z,-1.4
2018-12-29T03:22:26.611Z,-1.4
2018-12-29T03:23:27.051Z,-1.4
2018-12-29T03:24:26.981Z,-1.4
2018-12-29T03:25:26.864Z,-1.4
2018-12-29T03:26:26.813Z,-1.4
2018-12-29T03:27:26.755Z,-1.4
2018-12-29T03:28:27.447Z,-1.4
2018-12-29T03:29:27.346Z,-1.4
2018-12-29T03:30:27.269Z,-1.4
2018-12-29T03:31:30.127Z,-1.4
2018-12-29T03:32:31.097Z,-1.4
2018-12-29T03:33:32.047Z,-1.4
2018-12-29T03:34:32.056Z,-1.4
2018-12-29T03:35:34.709Z,-1.4
2018-12-29T03:36:34.635Z,-1.4
2018-12-29T03:37:34.549Z,-1.5
2018-12-29T03:38:37.706Z,-1.5
2018-12-29T03:39:37.642Z,-1.4
2018-12-29T03:40:37.549Z,-1.4
2018-12-29T03:41:37.528Z,-1.4
2018-12-29T03:42:37.446Z,-1.4
2018-12-29T03:43:37.377Z,-1.4
2018-12-29T03:44:37.300Z,-1.4
2018-12-29T03:45:37.245Z,-1.4
2018-12-29T03:46:37.186Z,-1.3
2018-12-29T03:47:37.117Z,-1.4
2018-12-29T03:47:46.730Z,-1.3
2018-12-29T03:48:50.824Z,-1.3
2018-12-29T03:49:51.851Z,-1.3
2018-12-29T03:50:52.774Z,-1.3
2018-12-29T03:51:58.435Z,-1.3
2018-12-29T03:52:58.347Z,-1.2
2018-12-29T03:53:58.731Z,-1.2
2018-12-29T03:54:58.653Z,-1.2
2018-12-29T03:55:58.549Z,-1.2
2018-12-29T03:57:00.489Z,-1.2
2018-12-29T03:58:02.448Z,-1.1
2018-12-29T03:59:04.063Z,-1.2
2018-12-29T04:00:06.972Z,-1.2
2018-12-29T04:01:15.426Z,-1.2
2018-12-29T04:02:15.343Z,-1.1
2018-12-29T04:03:15.454Z,-1
2018-12-29T04:04:18.264Z,-1
2018-12-29T04:05:25.125Z,-0.9
2018-12-29T04:06:27.055Z,-0.8
2018-12-29T04:07:33.089Z,-0.7
2018-12-29T04:08:32.988Z,-0.7
2018-12-29T04:09:36.531Z,-0.6
2018-12-29T04:10:36.502Z,-0.6
2018-12-29T04:11:39.421Z,-0.6
2018-12-29T04:12:40.384Z,-0.5
2018-12-29T04:13:40.273Z,-0.5
2018-12-29T04:14:40.878Z,-0.5
2018-12-29T04:15:41.797Z,-0.5
2018-12-29T04:16:46.390Z,-0.5
2018-12-29T04:17:47.351Z,-0.5
2018-12-29T04:18:50.252Z,-0.6
2018-12-29T04:19:50.844Z,-0.6
2018-12-29T04:20:50.754Z,-0.6
2018-12-29T04:21:50.662Z,-0.7
2018-12-29T04:22:53.609Z,-0.7
2018-12-29T04:23:53.524Z,-0.7
2018-12-29T04:24:53.451Z,-0.6
2018-12-29T04:25:56.306Z,-0.7
2018-12-29T04:26:59.992Z,-0.7
2018-12-29T04:28:02.451Z,-0.7
2018-12-29T04:29:08.854Z,-0.7
2018-12-29T04:30:10.454Z,-0.8
2018-12-29T04:31:11.040Z,-0.8
2018-12-29T04:32:10.958Z,-0.8
2018-12-29T04:33:10.912Z,-0.8
2018-12-29T04:34:11.246Z,-0.8
2018-12-29T04:35:11.398Z,-0.8
2018-12-29T04:36:13.862Z,-0.8
2018-12-29T04:37:17.564Z,-0.8
2018-12-29T04:38:20.610Z,-0.9
2018-12-29T04:39:20.558Z,-0.9
2018-12-29T04:40:24.850Z,-1
2018-12-29T04:41:32.833Z,-0.9
2018-12-29T04:42:32.750Z,-1
2018-12-29T04:43:32.659Z,-1
2018-12-29T04:44:33.572Z,-0.8
2018-12-29T04:45:37.264Z,-0.8
2018-12-29T04:46:40.199Z,-0.8
2018-12-29T04:47:40.083Z,-0.7
2018-12-29T04:48:40.663Z,-0.7
2018-12-29T04:49:44.001Z,-0.7
2018-12-29T04:50:44.569Z,-0.7
2018-12-29T04:51:45.456Z,-0.5
2018-12-29T04:52:45.578Z,-0.6
2018-12-29T04:53:45.513Z,-0.6
2018-12-29T04:54:49.232Z,-0.6
2018-12-29T04:55:49.640Z,-0.6
2018-12-29T04:56:49.550Z,-0.6
2018-12-29T04:57:50.468Z,-0.7
2018-12-29T04:58:53.401Z,-0.7
2018-12-29T04:59:53.273Z,-0.8
2018-12-29T05:00:53.621Z,-0.8
2018-12-29T05:01:53.564Z,-0.8
2018-12-29T05:03:05.678Z,-0.9
2018-12-29T05:04:05.562Z,-0.9
2018-12-29T05:05:08.023Z,-0.9
2018-12-29T05:06:08.846Z,-1
2018-12-29T05:07:12.288Z,-1
2018-12-29T05:08:12.185Z,-1
2018-12-29T05:09:12.110Z,-1
2018-12-29T05:10:20.225Z,-1
2018-12-29T05:11:24.400Z,-1.1
2018-12-29T05:12:27.290Z,-1.1
2018-12-29T05:13:30.096Z,-1.1
2018-12-29T05:14:30.484Z,-1.2
2018-12-29T05:15:34.414Z,-1.2
2018-12-29T05:16:37.447Z,-1.2
2018-12-29T05:17:37.839Z,-1.2
2018-12-29T05:18:38.004Z,-1.2
2018-12-29T05:19:37.893Z,-1.2
2018-12-29T05:20:38.037Z,-1.2
2018-12-29T05:21:38.936Z,-1.2
2018-12-29T05:22:39.877Z,-1.2
2018-12-29T05:23:48.679Z,-1.2
2018-12-29T05:24:49.594Z,-1.2
2018-12-29T05:25:52.808Z,-1.2
2018-12-29T05:26:52.720Z,-1.2
2018-12-29T05:27:56.745Z,-1.2
2018-12-29T05:28:56.863Z,-1.1
2018-12-29T05:29:56.979Z,-1.1
2018-12-29T05:30:57.161Z,-1.1
2018-12-29T05:32:07.295Z,-1
2018-12-29T05:33:07.197Z,-0.9
2018-12-29T05:34:07.097Z,-0.8
2018-12-29T05:35:10.863Z,-0.8
2018-12-29T05:36:15.089Z,-0.8
2018-12-29T05:37:17.826Z,2
2018-12-29T05:38:20.395Z,-0.8
2018-12-29T05:39:20.521Z,-0.9
2018-12-29T05:40:21.453Z,-0.9
2018-12-29T05:41:25.457Z,-0.9
2018-12-29T05:42:28.685Z,-0.9
2018-12-29T05:43:28.571Z,-0.8
2018-12-29T05:44:28.448Z,-0.8
2018-12-29T05:45:29.575Z,-0.8
2018-12-29T05:46:32.751Z,-0.8
2018-12-29T05:47:32.681Z,-0.9
2018-12-29T05:48:32.807Z,-0.9
2018-12-29T05:49:33.386Z,-1
2018-12-29T05:50:33.601Z,-1.1
2018-12-29T05:51:34.509Z,-1.2
2018-12-29T05:52:35.862Z,-1.2
2018-12-29T05:53:35.769Z,-1.2
2018-12-29T05:54:36.350Z,-1.2
2018-12-29T05:55:36.248Z,-1.2
2018-12-29T05:56:38.910Z,-1.2
2018-12-29T05:57:38.843Z,-1.2
2018-12-29T05:58:39.990Z,-1.2
2018-12-29T05:59:39.886Z,-1.2
2018-12-29T06:00:40.033Z,-1.2
2018-12-29T06:01:40.030Z,-1.1
2018-12-29T06:02:47.155Z,-1.1
2018-12-29T06:03:47.765Z,-1.1
2018-12-29T06:04:49.395Z,-1.2
2018-12-29T06:05:49.273Z,-1.1
2018-12-29T06:06:52.000Z,-1.1
2018-12-29T06:07:54.947Z,-1.1
2018-12-29T06:08:54.848Z,-1.2
2018-12-29T06:09:55.763Z,-1.2
2018-12-29T06:10:55.945Z,-1.2
2018-12-29T06:11:55.819Z,-1.2
2018-12-29T06:12:59.406Z,-1.2
2018-12-29T06:13:59.275Z,-1.3
2018-12-29T06:15:00.819Z,-1.3
2018-12-29T06:16:00.709Z,-1.4
2018-12-29T06:17:07.388Z,-1.4
2018-12-29T06:18:07.545Z,-1.4
2018-12-29T06:19:07.511Z,-1.4
2018-12-29T06:20:13.271Z,-1.4
2018-12-29T06:21:13.219Z,-1.4
2018-12-29T06:22:13.327Z,-1.5
2018-12-29T06:23:13.959Z,-1.5
2018-12-29T06:24:19.737Z,-1.5
2018-12-29T06:25:19.880Z,-1.6
2018-12-29T06:26:19.767Z,-1.7
2018-12-29T06:27:19.638Z,-1.6
2018-12-29T06:28:20.539Z,-1.6
2018-12-29T06:29:20.433Z,-1.7
2018-12-29T06:30:20.347Z,-1.7
2018-12-29T06:31:24.271Z,-1.7
2018-12-29T06:32:25.191Z,-1.7
2018-12-29T06:33:34.883Z,-1.7
2018-12-29T06:34:35.823Z,-1.7
2018-12-29T06:35:35.770Z,-1.7
2018-12-29T06:36:36.673Z,-1.7
2018-12-29T06:37:39.849Z,-1.6
2018-12-29T06:38:41.474Z,-1.6
2018-12-29T06:39:41.385Z,-1.6
2018-12-29T06:40:49.374Z,-1.4
2018-12-29T06:41:49.484Z,-1.3
2018-12-29T06:42:49.375Z,-1.4
2018-12-29T06:43:53.619Z,-1.4
2018-12-29T06:45:00.523Z,-1.3
2018-12-29T06:46:01.107Z,-1.4
2018-12-29T06:47:01.019Z,-1.4
2018-12-29T06:48:00.926Z,-1.4
2018-12-29T06:49:05.233Z,-1.4
2018-12-29T06:50:05.125Z,-1.4
2018-12-29T06:51:10.056Z,-1.4
2018-12-29T06:52:13.768Z,-1.4
2018-12-29T06:53:14.710Z,-1.5
2018-12-29T06:54:16.696Z,-1.5
2018-12-29T06:55:22.184Z,-1.5
2018-12-29T06:56:23.074Z,-1.6
2018-12-29T06:57:26.082Z,-1.5
2018-12-29T06:58:25.987Z,-1.5
2018-12-29T06:59:25.909Z,-1.6
2018-12-29T07:00:26.274Z,-1.6
2018-12-29T07:01:27.182Z,-1.7
2018-12-29T07:02:27.062Z,-1.6
2018-12-29T07:03:26.963Z,-1.6
2018-12-29T07:04:27.822Z,-1.6
2018-12-29T07:05:27.964Z,-1.6
2018-12-29T07:06:30.898Z,-1.6
2018-12-29T07:07:31.034Z,-1.7
2018-12-29T07:08:30.920Z,-1.7
2018-12-29T07:09:31.738Z,-1.6
2018-12-29T07:10:31.676Z,-1.6
2018-12-29T07:11:34.140Z,-1.6
2018-12-29T07:12:34.038Z,-1.7
2018-12-29T07:13:33.928Z,-1.7
2018-12-29T07:14:34.713Z,-1.7
2018-12-29T07:15:34.618Z,-1.7
2018-12-29T07:16:45.244Z,-1.7
2018-12-29T07:17:46.196Z,-1.7
2018-12-29T07:18:46.377Z,-1.7
2018-12-29T07:19:46.305Z,-1.7
2018-12-29T07:20:46.233Z,-1.7
2018-12-29T07:21:46.135Z,-1.7
2018-12-29T07:22:46.712Z,-1.7
2018-12-29T07:23:46.633Z,-1.7
2018-12-29T07:24:49.894Z,-1.8
2018-12-29T07:25:49.786Z,-1.8
2018-12-29T07:26:49.916Z,-1.8
2018-12-29T07:27:51.820Z,-1.7
2018-12-29T07:28:51.963Z,-1.7
2018-12-29T07:29:54.569Z,-1.7
2018-12-29T07:30:54.695Z,-1.7
2018-12-29T07:31:54.574Z,-1.7
2018-12-29T07:32:56.146Z,-1.7
2018-12-29T07:33:56.043Z,-1.7
2018-12-29T07:34:57.406Z,-1.8
2018-12-29T07:35:58.375Z,-1.8
2018-12-29T07:37:01.356Z,-1.8
2018-12-29T07:38:01.263Z,-1.8
2018-12-29T07:39:01.185Z,-1.7
2018-12-29T07:40:01.537Z,-1.7
2018-12-29T07:41:01.426Z,-1.7
2018-12-29T07:42:01.602Z,-1.7
2018-12-29T07:43:01.718Z,-1.7
2018-12-29T07:44:01.878Z,-1.6
2018-12-29T07:45:06.536Z,-1.7
2018-12-29T07:46:06.514Z,-1.7
2018-12-29T07:47:11.296Z,-1.7
2018-12-29T07:48:11.194Z,-1.6
2018-12-29T07:49:13.392Z,-1.6
2018-12-29T07:50:13.276Z,-1.6
2018-12-29T07:51:13.165Z,-1.6
2018-12-29T07:52:15.644Z,-1.6
2018-12-29T07:53:18.600Z,-1.6
2018-12-29T07:54:22.246Z,-1.6
2018-12-29T07:55:27.282Z,-1.6
2018-12-29T07:56:27.172Z,-1.6
2018-12-29T07:57:28.312Z,-1.6
2018-12-29T07:58:28.232Z,-1.5
2018-12-29T07:59:28.684Z,-1.5
2018-12-29T08:00:28.584Z,-1.5
2018-12-29T08:01:28.770Z,-1.5
2018-12-29T08:02:31.238Z,-1.5
2018-12-29T08:03:31.351Z,-1.5
2018-12-29T08:04:31.802Z,-1.5
2018-12-29T08:05:33.033Z,-1.5
2018-12-29T08:06:35.662Z,-1.5
2018-12-29T08:07:35.560Z,-1.5
2018-12-29T08:08:41.184Z,-1.5
2018-12-29T08:09:45.712Z,-1.4
2018-12-29T08:10:45.823Z,-1.2
2018-12-29T08:11:48.702Z,-1.3
2018-12-29T08:12:49.521Z,-1.3
2018-12-29T08:13:49.406Z,-1.1
2018-12-29T08:14:59.349Z,-1.1
2018-12-29T08:16:03.662Z,-1
2018-12-29T08:17:03.877Z,-0.9
2018-12-29T08:18:04.772Z,-0.9
2018-12-29T08:19:04.888Z,-0.9
2018-12-29T08:20:07.425Z,-0.8
2018-12-29T08:21:07.583Z,-0.8
2018-12-29T08:22:15.211Z,-0.8
2018-12-29T08:23:15.344Z,-0.8
2018-12-29T08:24:17.979Z,-0.8
2018-12-29T08:25:20.908Z,-0.8
2018-12-29T08:26:21.450Z,-0.7
2018-12-29T08:27:21.406Z,-0.7
2018-12-29T08:28:24.314Z,-0.7
2018-12-29T08:29:27.073Z,-0.6
2018-12-29T08:30:27.718Z,-0.6
2018-12-29T08:31:28.094Z,-0.7
2018-12-29T08:32:28.007Z,-0.7
2018-12-29T08:33:30.644Z,-0.7
2018-12-29T08:34:30.524Z,-0.7
2018-12-29T08:35:30.456Z,-0.9
2018-12-29T08:36:31.022Z,-0.9
2018-12-29T08:37:30.948Z,-0.9
2018-12-29T08:38:31.086Z,-0.9
2018-12-29T08:39:30.953Z,-0.9
2018-12-29T08:40:37.718Z,-0.8
2018-12-29T08:41:38.634Z,-0.8
2018-12-29T08:42:41.780Z,-0.7
2018-12-29T08:43:44.485Z,-0.7
2018-12-29T08:44:46.928Z,-0.6
2018-12-29T08:45:50.606Z,-0.6
2018-12-29T08:46:51.174Z,-0.5
2018-12-29T08:47:51.050Z,-0.5
2018-12-29T08:48:50.955Z,-0.5
2018-12-29T08:49:50.858Z,-0.5
2018-12-29T08:50:53.762Z,-0.6
2018-12-29T08:51:53.641Z,-0.5
2018-12-29T08:52:54.558Z,-0.5
2018-12-29T08:53:58.060Z,-0.5
2018-12-29T08:55:00.780Z,-0.6
2018-12-29T08:56:01.034Z,-0.6
2018-12-29T08:57:01.838Z,-0.6
2018-12-29T08:58:01.808Z,-0.6
2018-12-29T08:59:01.700Z,-0.6
2018-12-29T09:00:01.591Z,-0.7
2018-12-29T09:01:02.547Z,-0.6
2018-12-29T09:02:02.449Z,-0.6
2018-12-29T09:03:05.584Z,-0.6
2018-12-29T09:04:06.489Z,-0.6
2018-12-29T09:05:06.375Z,-0.6
2018-12-29T09:06:06.280Z,-0.6
2018-12-29T09:07:09.556Z,-0.6
2018-12-29T09:08:09.506Z,-0.6
2018-12-29T09:09:15.890Z,-0.6
2018-12-29T09:10:18.797Z,-0.6
2018-12-29T09:11:18.709Z,-0.5
2018-12-29T09:12:18.839Z,-0.6
2018-12-29T09:13:21.481Z,-0.6
2018-12-29T09:14:21.397Z,-0.6
2018-12-29T09:15:24.241Z,-0.6
2018-12-29T09:16:24.165Z,-0.6
2018-12-29T09:17:24.513Z,-0.5
2018-12-29T09:18:24.414Z,-0.6
2018-12-29T09:19:27.918Z,-0.6
2018-12-29T09:20:27.855Z,-0.6
2018-12-29T09:21:27.772Z,-0.6
2018-12-29T09:22:27.915Z,-0.6
2018-12-29T09:23:28.843Z,-0.6
2018-12-29T09:24:31.709Z,-0.5
2018-12-29T09:25:34.599Z,-0.5
2018-12-29T09:26:35.551Z,-0.5
2018-12-29T09:27:38.639Z,-0.5
2018-12-29T09:28:38.560Z,-0.5
2018-12-29T09:29:38.461Z,-0.5
2018-12-29T09:30:39.078Z,-0.5
2018-12-29T09:31:40.724Z,-0.5
2018-12-29T09:32:40.619Z,-0.4
2018-12-29T09:33:40.505Z,-0.4
2018-12-29T09:34:40.395Z,-0.4
2018-12-29T09:35:40.313Z,-0.4
2018-12-29T09:36:40.219Z,-0.4
2018-12-29T09:37:40.553Z,-0.4
2018-12-29T09:38:40.453Z,-0.3
2018-12-29T09:39:40.471Z,-0.3
2018-12-29T09:40:40.393Z,-0.3
2018-12-29T09:41:40.361Z,-0.3
2018-12-29T09:42:40.285Z,-0.3
2018-12-29T09:43:40.191Z,-0.3
2018-12-29T09:44:40.095Z,-0.3
2018-12-29T09:45:39.997Z,-0.3
2018-12-29T09:46:39.893Z,-0.3
2018-12-29T09:47:40.300Z,-0.3
2018-12-29T09:48:40.195Z,-0.3
2018-12-29T09:49:40.089Z,-0.3
2018-12-29T09:50:39.976Z,-0.3
2018-12-29T09:51:39.865Z,-0.3
2018-12-29T09:52:39.853Z,-0.3
2018-12-29T09:53:39.764Z,-0.3
2018-12-29T09:54:39.649Z,-0.3
2018-12-29T09:55:39.553Z,-0.3
2018-12-29T09:56:39.467Z,-0.3
2018-12-29T09:57:39.839Z,-0.3
2018-12-29T09:58:39.743Z,-0.3
2018-12-29T09:59:39.659Z,-0.3
2018-12-29T10:00:39.563Z,-0.3
2018-12-29T10:01:39.455Z,-0.3
2018-12-29T10:02:39.365Z,-0.2
2018-12-29T10:03:39.337Z,-0.3
2018-12-29T10:04:39.222Z,-0.3
2018-12-29T10:05:39.119Z,-0.3
2018-12-29T10:06:39.031Z,-0.3
2018-12-29T10:07:39.419Z,-0.3
2018-12-29T10:08:39.387Z,-0.3
2018-12-29T10:09:39.317Z,-0.3
2018-12-29T10:10:39.231Z,-0.4
2018-12-29T10:11:39.128Z,-0.3
2018-12-29T10:12:39.074Z,-0.3
2018-12-29T10:13:39.029Z,-0.3
2018-12-29T10:14:38.931Z,-0.3
2018-12-29T10:15:38.834Z,-0.3
2018-12-29T10:16:38.763Z,-0.3
2018-12-29T10:17:39.088Z,-0.3
2018-12-29T10:18:39.009Z,-0.3
2018-12-29T10:19:38.962Z,-0.3
2018-12-29T10:20:38.885Z,-0.3
2018-12-29T10:21:38.771Z,-0.2
2018-12-29T10:22:38.699Z,-0.2
2018-12-29T10:23:38.601Z,-0.2
2018-12-29T10:24:38.543Z,-0.2
2018-12-29T10:25:38.467Z,-0.2
2018-12-29T10:26:38.359Z,-0.3
2018-12-29T10:27:38.716Z,-0.3
2018-12-29T10:28:38.625Z,-0.3
2018-12-29T10:29:38.524Z,-0.3
2018-12-29T10:30:38.449Z,-0.3
2018-12-29T10:31:38.384Z,-0.2
2018-12-29T10:32:38.312Z,-0.3
2018-12-29T10:33:38.223Z,-0.3
2018-12-29T10:34:38.129Z,-0.3
2018-12-29T10:35:38.062Z,-0.3
2018-12-29T10:36:37.953Z,-0.4
2018-12-29T10:37:38.331Z,-0.4
2018-12-29T10:38:38.227Z,-0.5
2018-12-29T10:39:38.199Z,-0.5
2018-12-29T10:40:38.083Z,-0.5
2018-12-29T10:41:37.987Z,-0.5
2018-12-29T10:42:40.842Z,-0.6
2018-12-29T10:43:40.737Z,-0.6
2018-12-29T10:44:40.657Z,-0.6
2018-12-29T10:45:40.563Z,-0.6
2018-12-29T10:46:40.509Z,-0.6
2018-12-29T10:47:40.829Z,-0.6
2018-12-29T10:48:40.749Z,-0.5
2018-12-29T10:49:40.669Z,-0.5
2018-12-29T10:50:40.558Z,-0.4
2018-12-29T10:51:40.447Z,-0.4
2018-12-29T10:52:40.344Z,-0.4
2018-12-29T10:53:40.257Z,-0.4
2018-12-29T10:54:40.169Z,-0.4
2018-12-29T10:55:40.074Z,-0.4
2018-12-29T10:56:39.959Z,-0.5
2018-12-29T10:57:40.285Z,-0.5
2018-12-29T10:58:40.185Z,-0.5
2018-12-29T10:59:40.128Z,-0.5
2018-12-29T11:00:40.050Z,-0.5
2018-12-29T11:01:39.933Z,-0.5
2018-12-29T11:02:39.840Z,-0.5
2018-12-29T11:03:39.753Z,-0.5
2018-12-29T11:04:39.812Z,-0.5
2018-12-29T11:05:39.878Z,-0.5
2018-12-29T11:06:39.785Z,-0.5
2018-12-29T11:07:40.134Z,-0.5
2018-12-29T11:08:40.043Z,-0.5
2018-12-29T11:09:39.952Z,-0.4
2018-12-29T11:10:39.884Z,-0.4
2018-12-29T11:11:39.804Z,-0.4
2018-12-29T11:12:39.709Z,-0.3
2018-12-29T11:13:39.648Z,-0.2
2018-12-29T11:14:39.567Z,-0.2
2018-12-29T11:15:39.484Z,-0.2
2018-12-29T11:16:39.399Z,-0.2
2018-12-29T11:17:43.056Z,-0.1
2018-12-29T11:18:42.947Z,-0.1
2018-12-29T11:19:42.825Z,0
2018-12-29T11:20:42.792Z,0.1
2018-12-29T11:21:42.680Z,0
2018-12-29T11:22:42.579Z,0
2018-12-29T11:23:42.489Z,0.1
2018-12-29T11:24:42.411Z,0.1
2018-12-29T11:25:42.310Z,0.2
2018-12-29T11:26:42.246Z,0.2
2018-12-29T11:27:42.582Z,0.2
2018-12-29T11:28:42.479Z,0.2
2018-12-29T11:29:42.376Z,0.1
2018-12-29T11:30:42.280Z,0.1
2018-12-29T11:31:42.170Z,0.1
2018-12-29T11:32:42.085Z,0.1
2018-12-29T11:33:41.976Z,0.1
2018-12-29T11:34:41.880Z,0.1
2018-12-29T11:35:41.797Z,0.1
2018-12-29T11:36:41.714Z,0
2018-12-29T11:37:42.122Z,0
2018-12-29T11:38:43.940Z,0.1
2018-12-29T11:39:43.832Z,0.1
2018-12-29T11:40:43.737Z,0.1
2018-12-29T11:41:43.632Z,0.2
2018-12-29T11:42:43.588Z,0.2
2018-12-29T11:43:43.490Z,0.3
2018-12-29T11:44:43.383Z,0.3
2018-12-29T11:45:43.272Z,0.4
2018-12-29T11:46:43.264Z,0.4
2018-12-29T11:47:50.607Z,0.5
2018-12-29T11:48:51.088Z,0.5
2018-12-29T11:49:51.400Z,0.6
2018-12-29T11:50:51.346Z,0.8
2018-12-29T11:51:51.304Z,0.8
2018-12-29T11:52:51.277Z,0.8
2018-12-29T11:53:51.228Z,0.9
2018-12-29T11:54:51.206Z,0.8
2018-12-29T11:55:51.162Z,0.9
2018-12-29T11:56:51.130Z,0.9
2018-12-29T11:57:51.602Z,0.9
2018-12-29T11:58:51.832Z,0.9
2018-12-29T11:59:52.973Z,1
2018-12-29T12:00:52.925Z,1
2018-12-29T12:01:52.879Z,1
2018-12-29T12:02:52.852Z,1.1
2018-12-29T12:03:52.842Z,1
2018-12-29T12:04:52.842Z,1
2018-12-29T12:05:52.810Z,1
2018-12-29T12:06:52.764Z,1.1
2018-12-29T12:07:53.635Z,1.1
2018-12-29T12:08:54.510Z,1.1
2018-12-29T12:09:54.469Z,1.1
2018-12-29T12:10:54.446Z,1.1
2018-12-29T12:11:54.404Z,1.2
2018-12-29T12:12:54.380Z,1.2
2018-12-29T12:13:54.344Z,1.2
2018-12-29T12:14:54.332Z,1.2
2018-12-29T12:15:54.299Z,1.1
2018-12-29T12:16:54.725Z,1.2
2018-12-29T12:17:58.578Z,1.2
2018-12-29T12:18:59.761Z,1.1
2018-12-29T12:19:59.762Z,1.2
2018-12-29T12:20:59.921Z,1.2
2018-12-29T12:21:59.894Z,1.3
2018-12-29T12:22:59.873Z,1.4
2018-12-29T12:23:59.886Z,1.5
2018-12-29T12:24:59.943Z,1.6
2018-12-29T12:25:59.934Z,1.6
2018-12-29T12:26:59.924Z,1.6
2018-12-29T12:28:01.723Z,1.7
2018-12-29T12:29:02.299Z,1.8
2018-12-29T12:30:03.677Z,1.8
2018-12-29T12:31:03.691Z,1.9
2018-12-29T12:32:03.720Z,1.9
2018-12-29T12:33:03.710Z,1.8
2018-12-29T12:34:04.420Z,1.9
2018-12-29T12:35:05.250Z,1.8
2018-12-29T12:36:05.268Z,1.9
2018-12-29T12:37:05.224Z,1.9
2018-12-29T12:38:05.714Z,1.9
2018-12-29T12:39:06.280Z,1.9
2018-12-29T12:40:07.331Z,1.9
2018-12-29T12:41:07.332Z,2
2018-12-29T12:42:07.330Z,1.9
2018-12-29T12:43:07.316Z,1.9
2018-12-29T12:44:08.543Z,1.9
2018-12-29T12:45:09.874Z,1.9
2018-12-29T12:46:09.895Z,1.9
2018-12-29T12:47:09.876Z,1.9
2018-12-29T12:48:10.448Z,1.9
2018-12-29T12:49:10.449Z,1.9
2018-12-29T12:50:11.014Z,1.9
2018-12-29T12:51:12.176Z,1.9
2018-12-29T12:52:12.198Z,1.9
2018-12-29T12:53:12.647Z,1.9
2018-12-29T12:54:13.913Z,1.9
2018-12-29T12:55:14.024Z,1.8
2018-12-29T12:56:13.993Z,1.8
2018-12-29T12:57:14.684Z,1.8
2018-12-29T12:58:18.478Z,1.7
2018-12-29T12:59:20.437Z,1.7
2018-12-29T13:00:21.829Z,1.7
2018-12-29T13:01:22.892Z,1.7
2018-12-29T13:02:22.868Z,1.7
2018-12-29T13:03:23.423Z,1.7
2018-12-29T13:04:24.166Z,1.7
2018-12-29T13:05:24.184Z,1.7
2018-12-29T13:06:24.176Z,1.7
2018-12-29T13:07:24.135Z,1.7
2018-12-29T13:08:24.542Z,1.7
2018-12-29T13:09:24.480Z,1.8
2018-12-29T13:10:24.447Z,1.8
2018-12-29T13:11:24.435Z,1.8
2018-12-29T13:12:24.567Z,1.8
2018-12-29T13:13:24.521Z,1.8
2018-12-29T13:14:24.486Z,1.8
2018-12-29T13:15:24.477Z,1.9
2018-12-29T13:16:24.459Z,1.9
2018-12-29T13:17:24.416Z,1.9
2018-12-29T13:18:24.878Z,1.9
2018-12-29T13:19:29.276Z,1.9
2018-12-29T13:20:29.228Z,1.9
2018-12-29T13:21:29.228Z,1.9
2018-12-29T13:22:29.688Z,1.9
2018-12-29T13:23:30.614Z,1.9
2018-12-29T13:24:30.599Z,1.9
2018-12-29T13:25:30.568Z,1.9
2018-12-29T13:26:30.552Z,1.9
2018-12-29T13:27:30.504Z,1.9
2018-12-29T13:28:30.960Z,2
2018-12-29T13:29:30.921Z,2
2018-12-29T13:30:30.865Z,2
2018-12-29T13:31:32.876Z,2
2018-12-29T13:32:32.964Z,2
2018-12-29T13:33:32.957Z,2
2018-12-29T13:34:32.930Z,2
2018-12-29T13:35:32.896Z,2
2018-12-29T13:36:32.864Z,2